createdAt,value
2019-05-02T00:03:17.479Z,100757.25
2019-05-02T00:08:21.277Z,100753.44
2019-05-02T00:13:24.091Z,100747.47
2019-05-02T00:18:26.982Z,100749.51
2019-05-02T00:23:29.673Z,100747.77
2019-05-02T00:28:32.362Z,100742.98
2019-05-02T00:33:35.863Z,100741.86
2019-05-02T00:38:39.902Z,100737.23
2019-05-02T00:43:42.834Z,100733.55
2019-05-02T00:48:59.749Z,100733.06
2019-05-02T00:54:03.237Z,100739.28
2019-05-02T00:59:07.343Z,100731.52
2019-05-02T01:04:17.630Z,100732.62
2019-05-02T01:09:20.323Z,100715.96
2019-05-02T01:14:27.218Z,100716.47
2019-05-02T01:19:27.616Z,100713.47
2019-05-02T01:24:34.282Z,100707.80
2019-05-02T01:29:42.607Z,100705.83
2019-05-02T01:35:00.240Z,100706.73
2019-05-02T01:40:03.649Z,100703.91
2019-05-02T01:45:06.863Z,100702.30
2019-05-02T01:50:11.946Z,100705.84
2019-05-02T01:55:17.092Z,100703.16
2019-05-02T02:00:20.378Z,100696.55
2019-05-02T02:05:23.069Z,100693.23
2019-05-02T02:10:25.765Z,100692.60
2019-05-02T02:15:29.068Z,100683.36
2019-05-02T02:20:45.172Z,100681.73
2019-05-02T02:25:55.505Z,100675.01
2019-05-02T02:31:04.952Z,100668.64
2019-05-02T02:36:03.108Z,100666.98
2019-05-02T02:41:12.159Z,100665.90
2019-05-02T02:46:30.818Z,100653.59
2019-05-02T02:51:32.049Z,100649.09
2019-05-02T02:56:40.433Z,100654.73
2019-05-02T03:01:39.345Z,100650.01
2019-05-02T03:06:44.821Z,100638.38
2019-05-02T03:12:06.352Z,100632.05
2019-05-02T03:17:09.157Z,100622.02
2019-05-02T03:22:11.852Z,100620.36
2019-05-02T03:27:15.490Z,100619.11
2019-05-02T03:32:32.137Z,100613.00
2019-05-02T03:37:22.982Z,100606.48
2019-05-02T03:42:25.810Z,100619.30
2019-05-02T03:47:28.906Z,100606.83
2019-05-02T03:52:36.697Z,100602.67
2019-05-02T03:57:36.388Z,100599.03
2019-05-02T04:02:39.642Z,100603.34
2019-05-02T04:07:42.548Z,100607.47
2019-05-02T04:12:45.456Z,100589.06
2019-05-02T04:17:51.705Z,100594.53
2019-05-02T04:22:54.690Z,100591.23
2019-05-02T04:28:05.767Z,100592.83
2019-05-02T04:33:06.824Z,100593.73
2019-05-02T04:38:19.681Z,100589.86
2019-05-02T04:43:14.133Z,100590.28
2019-05-02T04:48:18.450Z,100585.77
2019-05-02T04:53:26.063Z,100587.30
2019-05-02T04:58:31.429Z,100580.55
2019-05-02T05:03:30.611Z,100578.59
2019-05-02T05:08:33.315Z,100576.59
2019-05-02T05:13:37.388Z,100573.17
2019-05-02T05:18:43.874Z,100575.66
2019-05-02T05:24:04.557Z,100571.28
2019-05-02T05:29:08.258Z,100564.23
2019-05-02T05:34:11.145Z,100568.41
2019-05-02T05:39:13.859Z,100571.70
2019-05-02T05:44:18.069Z,100576.13
2019-05-02T05:49:21.866Z,100575.34
2019-05-02T05:54:24.682Z,100562.23
2019-05-02T05:59:31.923Z,100571.52
2019-05-02T06:04:33.272Z,100562.01
2019-05-02T06:09:36.200Z,100561.72
2019-05-02T06:14:38.890Z,100564.99
2019-05-02T06:19:41.586Z,100561.92
2019-05-02T06:24:46.179Z,100563.83
2019-05-02T06:29:51.119Z,100556.53
2019-05-02T06:34:53.490Z,100551.84
2019-05-02T06:39:56.700Z,100551.73
2019-05-02T06:45:01.002Z,100550.03
2019-05-02T06:50:05.170Z,100551.84
2019-05-02T06:55:08.815Z,100535.89
2019-05-02T07:00:12.194Z,100407.38
2019-05-02T07:05:14.917Z,100523.02
2019-05-02T07:10:20.122Z,100412.80
2019-05-02T07:15:38.439Z,100526.13
2019-05-02T07:20:42.342Z,100523.24
2019-05-02T07:25:45.306Z,100532.39
2019-05-02T07:30:48.280Z,100526.53
2019-05-02T07:35:55.209Z,100525.07
2019-05-02T07:40:55.758Z,100521.08
2019-05-02T07:45:58.458Z,100522.16
2019-05-02T07:51:02.559Z,100519.56
2019-05-02T07:56:05.435Z,100522.47
2019-05-02T08:01:13.599Z,100523.95
2019-05-02T08:06:12.894Z,100522.01
2019-05-02T08:11:15.608Z,100516.69
2019-05-02T08:16:22.367Z,100518.17
2019-05-02T08:21:27.289Z,100518.56
2019-05-02T08:26:43.651Z,100518.02
2019-05-02T08:31:46.669Z,100525.14
2019-05-02T08:36:49.397Z,100521.61
2019-05-02T08:41:56.387Z,100521.44
2019-05-02T08:46:56.740Z,100518.09
2019-05-02T08:51:59.470Z,100525.78
2019-05-02T08:57:02.199Z,100526.12
2019-05-02T09:02:04.913Z,100515.02
2019-05-02T09:07:07.950Z,100511.00
2019-05-02T09:12:13.237Z,100513.19
2019-05-02T09:17:16.689Z,100504.83
2019-05-02T09:22:19.521Z,100502.49
2019-05-02T09:27:22.524Z,100506.25
2019-05-02T09:32:26.591Z,100505.23
2019-05-02T09:37:32.006Z,100498.56
2019-05-02T09:42:34.661Z,100500.84
2019-05-02T09:47:52.898Z,100498.84
2019-05-02T09:52:44.177Z,100495.84
2019-05-02T09:57:46.632Z,100486.48
2019-05-02T10:02:49.434Z,100492.62
2019-05-02T10:07:52.578Z,100487.16
2019-05-02T10:12:55.478Z,100486.22
2019-05-02T10:18:08.763Z,100464.52
2019-05-02T10:23:03.330Z,100459.89
2019-05-02T10:28:06.061Z,100463.05
2019-05-02T10:33:08.791Z,100465.33
2019-05-02T10:38:17.564Z,100455.71
2019-05-02T10:43:16.274Z,100448.32
2019-05-02T10:48:27.396Z,100441.80
2019-05-02T10:53:23.676Z,100434.44
2019-05-02T10:58:34.150Z,100434.02
2019-05-02T11:03:38.128Z,100422.73
2019-05-02T11:08:45.984Z,100421.03
2019-05-02T11:14:01.119Z,100420.44
2019-05-02T11:19:05.161Z,100405.67
2019-05-02T11:24:07.881Z,100390.67
2019-05-02T11:29:12.102Z,100381.39
2019-05-02T11:34:15.134Z,100381.31
2019-05-02T11:39:25.278Z,100374.44
2019-05-02T11:44:22.750Z,100359.13
2019-05-02T11:49:25.503Z,100364.06
2019-05-02T11:54:28.229Z,100358.28
2019-05-02T11:59:31.968Z,100350.52
2019-05-02T12:04:34.971Z,100347.87
2019-05-02T12:09:37.701Z,100342.58
2019-05-02T12:14:41.893Z,100339.11
2019-05-02T12:19:44.756Z,100329.06
2019-05-02T12:24:47.503Z,100314.50
2019-05-02T12:29:57.857Z,100321.57
2019-05-02T12:34:55.157Z,100317.78
2019-05-02T12:39:58.141Z,100312.43
2019-05-02T12:45:02.862Z,100318.11
2019-05-02T12:50:06.659Z,100308.74
2019-05-02T12:55:09.569Z,100303.97
2019-05-02T13:00:14.479Z,100303.85
2019-05-02T13:05:17.222Z,100308.38
2019-05-02T13:10:43.470Z,100305.84
2019-05-02T13:15:46.302Z,100300.50
2019-05-02T13:20:49.337Z,100299.34
2019-05-02T13:25:52.177Z,100294.17
2019-05-02T13:31:07.574Z,100303.49
2019-05-02T13:36:45.233Z,100295.22
2019-05-02T13:41:48.088Z,100313.16
2019-05-02T13:46:50.954Z,100308.30
2019-05-02T13:51:55.735Z,100295.31
2019-05-02T13:56:58.473Z,100304.81
2019-05-02T14:02:02.748Z,100301.83
2019-05-02T14:07:07.584Z,100297.78
2019-05-02T14:12:36.098Z,100295.97
2019-05-02T14:17:38.924Z,100293.02
2019-05-02T14:22:42.459Z,100291.06
2019-05-02T14:27:52.424Z,100284.00
2019-05-02T14:32:52.786Z,100284.20
2019-05-02T14:38:13.140Z,100282.77
2019-05-02T14:43:38.123Z,100279.03
2019-05-02T14:48:45.335Z,100275.30
2019-05-02T14:53:48.698Z,100265.09
2019-05-02T14:58:52.855Z,100260.87
2019-05-02T15:03:58.214Z,100250.73
2019-05-02T15:09:02.468Z,100243.14
2019-05-02T15:14:05.092Z,100237.55
2019-05-02T15:19:07.935Z,100235.71
2019-05-02T15:24:11.909Z,100230.08
2019-05-02T15:29:19.646Z,100234.81
2019-05-02T15:34:52.526Z,100231.33
2019-05-02T15:45:01.885Z,100239.31
2019-05-02T15:50:05.635Z,100242.44
2019-05-02T15:55:11.476Z,100235.17
2019-05-02T16:00:22.979Z,100235.96
2019-05-02T16:05:24.205Z,100236.25
2019-05-02T16:10:31.030Z,100222.78
2019-05-02T16:15:32.643Z,100220.39
2019-05-02T16:21:06.966Z,100225.11
2019-05-02T16:26:08.717Z,100224.78
2019-05-02T16:31:12.607Z,100217.31
2019-05-02T16:36:15.538Z,100210.48
2019-05-02T16:41:18.273Z,100210.20
2019-05-02T16:46:21.692Z,100212.03
2019-05-02T16:51:30.779Z,100212.86
2019-05-02T16:56:29.196Z,100210.45
2019-05-02T17:01:32.760Z,100212.53
2019-05-02T17:06:37.529Z,100209.19
2019-05-02T17:11:42.162Z,100206.91
2019-05-02T17:16:47.081Z,100204.58
2019-05-02T17:21:55.434Z,100199.87
2019-05-02T17:26:55.832Z,100193.59
2019-05-02T17:31:59.896Z,100206.34
2019-05-02T17:37:06.215Z,100201.72
2019-05-02T17:42:07.368Z,100205.49
2019-05-02T17:47:10.139Z,100204.49
2019-05-02T17:52:27.130Z,100209.30
2019-05-02T17:57:33.361Z,100203.18
2019-05-02T18:02:35.106Z,100203.45
2019-05-02T18:07:37.870Z,100205.52
2019-05-02T18:12:42.795Z,100216.92
2019-05-02T18:17:45.439Z,100246.95
2019-05-02T18:22:49.076Z,100243.06
2019-05-02T18:27:54.225Z,100241.42
2019-05-02T18:32:57.898Z,100245.91
2019-05-02T18:38:02.635Z,100244.64
2019-05-02T18:43:05.572Z,100245.91
2019-05-02T18:48:08.490Z,100253.03
2019-05-02T18:53:13.578Z,100259.08
2019-05-02T18:58:16.505Z,100271.02
2019-05-02T19:03:19.232Z,100268.02
2019-05-02T19:08:29.049Z,100272.64
2019-05-02T19:13:29.617Z,100272.47
2019-05-02T19:18:32.463Z,100281.77
2019-05-02T19:23:36.322Z,100276.68
2019-05-02T19:29:02.803Z,100281.05
2019-05-02T19:34:05.540Z,100288.81
2019-05-02T19:39:09.910Z,100295.06
2019-05-02T19:44:15.234Z,100304.26
2019-05-02T19:49:17.638Z,100302.94
2019-05-02T19:54:21.879Z,100312.36
2019-05-02T19:59:26.424Z,100327.22
2019-05-02T20:04:29.429Z,100328.98
2019-05-02T20:09:33.045Z,100340.10
2019-05-02T20:14:38.250Z,100342.27
2019-05-02T20:19:42.883Z,100349.09
2019-05-02T20:24:55.286Z,100361.11
2019-05-02T20:29:57.044Z,100358.38
2019-05-02T20:34:59.798Z,100354.48
2019-05-02T20:40:03.038Z,100355.97
2019-05-02T20:45:06.155Z,100364.94
2019-05-02T20:50:09.106Z,100365.79
2019-05-02T20:55:12.259Z,100365.10
2019-05-02T21:00:23.562Z,100377.98
2019-05-02T21:05:33.805Z,100377.87
2019-05-02T21:10:39.200Z,100365.59
2019-05-02T21:15:41.915Z,100379.57
2019-05-02T21:20:44.619Z,100385.98
2019-05-02T21:25:47.324Z,100381.52
2019-05-02T21:30:52.193Z,100385.36
2019-05-02T21:35:54.689Z,100391.72
2019-05-02T21:40:57.511Z,100383.37
2019-05-02T21:46:02.249Z,100394.36
2019-05-02T21:51:16.391Z,100391.40
2019-05-02T21:56:42.922Z,100393.09
2019-05-02T22:01:54.893Z,100399.65
2019-05-02T22:06:57.633Z,100406.98
2019-05-02T22:12:00.701Z,100404.44
2019-05-02T22:17:04.475Z,100417.38
2019-05-02T22:22:07.194Z,100417.84
2019-05-02T22:27:09.920Z,100414.10
2019-05-02T22:32:12.672Z,100418.15
2019-05-02T22:37:17.425Z,100417.56
2019-05-02T22:42:21.881Z,100430.37
2019-05-02T22:47:24.758Z,100432.27
2019-05-02T22:52:27.473Z,100435.92
2019-05-02T22:57:31.803Z,100436.12
2019-05-02T23:02:34.715Z,100442.44
2019-05-02T23:07:37.446Z,100439.34
2019-05-02T23:12:42.283Z,100444.80
2019-05-02T23:17:44.817Z,100450.31
2019-05-02T23:22:47.551Z,100452.36
2019-05-02T23:27:54.121Z,100453.33
2019-05-02T23:32:56.850Z,100460.40
2019-05-02T23:37:59.602Z,100455.13
2019-05-02T23:43:02.334Z,100454.25
2019-05-02T23:48:05.060Z,100456.72
2019-05-02T23:53:07.792Z,100460.30
2019-05-02T23:58:11.962Z,100459.47
